sensor_id;sensor_type;location;lat;lon;timestamp;P1;durP1;ratioP1;P2;durP2;ratioP2
45314;SDS011;31051;51.540;5.852;2023-07-13T09:12:55;8.8;;;3.9;;
45314;SDS011;31051;51.540;5.852;2023-07-13T09:25:53;8.1;;;3.7;;
45314;SDS011;31051;51.540;5.852;2023-07-13T09:38:43;12.1;;;4.1;;
45314;SDS011;31051;51.540;5.852;2023-07-13T09:51:41;8.5;;;3.3;;
45314;SDS011;31051;51.540;5.852;2023-07-13T10:04:29;6.3;;;2.6;;
45314;SDS011;31051;51.540;5.852;2023-07-13T10:17:19;6.7;;;2.8;;
45314;SDS011;31051;51.540;5.852;2023-07-13T10:30:18;6.7;;;2.7;;
45314;SDS011;31051;51.540;5.852;2023-07-13T10:43:18;7.1;;;2.8;;
45314;SDS011;31051;51.540;5.852;2023-07-13T10:56:17;6.3;;;2.6;;
45314;SDS011;31051;51.540;5.852;2023-07-13T11:09:16;6.8;;;2.7;;
45314;SDS011;31051;51.540;5.852;2023-07-13T11:22:04;5.0;;;2.2;;
45314;SDS011;31051;51.540;5.852;2023-07-13T11:34:52;4.9;;;2.3;;
45314;SDS011;31051;51.540;5.852;2023-07-13T11:47:41;4.8;;;2.2;;
45314;SDS011;31051;51.540;5.852;2023-07-13T12:00:29;5.6;;;2.4;;
45314;SDS011;31051;51.540;5.852;2023-07-13T12:13:19;6.4;;;2.6;;
45314;SDS011;31051;51.540;5.852;2023-07-13T12:26:18;7.2;;;2.8;;
45314;SDS011;31051;51.540;5.852;2023-07-13T12:39:16;7.8;;;4.0;;
45314;SDS011;31051;51.540;5.852;2023-07-13T12:52:06;5.8;;;3.2;;
45314;SDS011;31051;51.540;5.852;2023-07-13T13:05:05;6.1;;;3.8;;
45314;SDS011;31051;51.540;5.852;2023-07-13T13:18:04;6.0;;;3.2;;
45314;SDS011;31051;51.540;5.852;2023-07-13T13:30:53;5.8;;;3.0;;
45314;SDS011;31051;51.540;5.852;2023-07-13T13:43:52;5.4;;;2.7;;
45314;SDS011;31051;51.540;5.852;2023-07-13T13:56:52;6.8;;;3.5;;
45314;SDS011;31051;51.540;5.852;2023-07-13T14:09:50;8.3;;;5.3;;
45314;SDS011;31051;51.540;5.852;2023-07-13T14:22:39;8.0;;;4.3;;
45314;SDS011;31051;51.540;5.852;2023-07-13T14:35:39;9.1;;;4.7;;
45314;SDS011;31051;51.540;5.852;2023-07-13T14:48:37;7.2;;;4.1;;
45314;SDS011;31051;51.540;5.852;2023-07-13T15:01:26;5.1;;;3.2;;
45314;SDS011;31051;51.540;5.852;2023-07-13T15:14:14;5.0;;;2.9;;
45314;SDS011;31051;51.540;5.852;2023-07-13T15:27:02;3.2;;;1.9;;
45314;SDS011;31051;51.540;5.852;2023-07-13T15:39:51;2.9;;;1.9;;
45314;SDS011;31051;51.540;5.852;2023-07-13T15:52:40;3.3;;;1.8;;
45314;SDS011;31051;51.540;5.852;2023-07-13T16:05:39;3.3;;;2.2;;
45314;SDS011;31051;51.540;5.852;2023-07-13T16:18:39;3.9;;;2.0;;
45314;SDS011;31051;51.540;5.852;2023-07-13T16:31:37;3.6;;;2.0;;
45314;SDS011;31051;51.540;5.852;2023-07-13T16:44:27;4.8;;;2.2;;
45314;SDS011;31051;51.540;5.852;2023-07-13T16:57:26;4.0;;;2.3;;
45314;SDS011;31051;51.540;5.852;2023-07-13T17:10:26;4.2;;;2.2;;
45314;SDS011;31051;51.540;5.852;2023-07-13T17:23:24;4.6;;;2.4;;
45314;SDS011;31051;51.540;5.852;2023-07-13T17:36:12;3.7;;;2.2;;
45314;SDS011;31051;51.540;5.852;2023-07-13T17:49:02;4.8;;;2.5;;
45314;SDS011;31051;51.540;5.852;2023-07-13T18:02:01;4.2;;;2.4;;
45314;SDS011;31051;51.540;5.852;2023-07-13T18:14:59;4.5;;;2.3;;
45314;SDS011;31051;51.540;5.852;2023-07-13T18:27:49;4.8;;;2.4;;
45314;SDS011;31051;51.540;5.852;2023-07-13T18:40:48;4.7;;;2.3;;
45314;SDS011;31051;51.540;5.852;2023-07-13T18:53:48;4.7;;;2.5;;
45314;SDS011;31051;51.540;5.852;2023-07-13T19:06:46;4.5;;;2.3;;
45314;SDS011;31051;51.540;5.852;2023-07-13T19:19:34;4.8;;;2.6;;
45314;SDS011;31051;51.540;5.852;2023-07-13T19:32:24;5.7;;;2.7;;
45314;SDS011;31051;51.540;5.852;2023-07-13T19:45:22;4.6;;;2.7;;
45314;SDS011;31051;51.540;5.852;2023-07-13T19:58:11;5.0;;;3.1;;
45314;SDS011;31051;51.540;5.852;2023-07-13T20:11:00;4.4;;;2.9;;
45314;SDS011;31051;51.540;5.852;2023-07-13T20:23:58;4.1;;;2.5;;
45314;SDS011;31051;51.540;5.852;2023-07-13T20:36:48;4.0;;;2.5;;
45314;SDS011;31051;51.540;5.852;2023-07-13T20:49:47;4.4;;;2.7;;
45314;SDS011;31051;51.540;5.852;2023-07-13T21:02:46;5.0;;;3.5;;
45314;SDS011;31051;51.540;5.852;2023-07-13T21:15:46;6.5;;;4.3;;
45314;SDS011;31051;51.540;5.852;2023-07-13T21:28:45;5.0;;;3.7;;
45314;SDS011;31051;51.540;5.852;2023-07-13T21:41:45;5.1;;;3.8;;
45314;SDS011;31051;51.540;5.852;2023-07-13T21:54:44;5.4;;;4.2;;
45314;SDS011;31051;51.540;5.852;2023-07-13T22:07:42;5.2;;;4.0;;
45314;SDS011;31051;51.540;5.852;2023-07-13T22:20:32;5.0;;;4.2;;
45314;SDS011;31051;51.540;5.852;2023-07-13T22:33:31;6.7;;;5.6;;
45314;SDS011;31051;51.540;5.852;2023-07-13T22:46:30;8.2;;;6.6;;
45314;SDS011;31051;51.540;5.852;2023-07-13T22:59:30;5.6;;;4.9;;
45314;SDS011;31051;51.540;5.852;2023-07-13T23:12:29;6.4;;;5.2;;
45314;SDS011;31051;51.540;5.852;2023-07-13T23:25:29;5.8;;;5.1;;
45314;SDS011;31051;51.540;5.852;2023-07-13T23:38:28;5.8;;;5.3;;
45314;SDS011;31051;51.540;5.852;2023-07-13T23:51:27;5.5;;;5.0;;
